createdAt,value
2022-08-07T00:02:36.230Z,98774.34
2022-08-07T00:05:03.841Z,98783.22
2022-08-07T00:07:40.059Z,98787.00
2022-08-07T00:10:30.624Z,98782.56
2022-08-07T00:13:23.630Z,98787.13
2022-08-07T00:15:52.567Z,98792.41
2022-08-07T00:18:24.939Z,98798.25
2022-08-07T00:21:07.838Z,98797.22
2022-08-07T00:23:39.630Z,98795.38
2022-08-07T00:26:18.580Z,98806.28
2022-08-07T00:29:01.402Z,98799.59
2022-08-07T00:31:37.785Z,98804.13
2022-08-07T00:34:10.274Z,98810.00
2022-08-07T00:36:43.071Z,98810.22
2022-08-07T00:39:17.043Z,98817.03
2022-08-07T00:42:01.795Z,98821.34
2022-08-07T00:44:34.254Z,98817.47
2022-08-07T00:47:04.321Z,98823.31
2022-08-07T00:50:21.093Z,98827.66
2022-08-07T00:52:23.963Z,98830.13
2022-08-07T00:54:54.305Z,98825.50
2022-08-07T00:57:27.558Z,98824.41
2022-08-07T01:00:03.459Z,98835.13
2022-08-07T01:02:32.272Z,98836.84
2022-08-07T01:05:01.192Z,98846.47
2022-08-07T01:07:31.492Z,98841.06
2022-08-07T01:10:06.668Z,98850.47
2022-08-07T01:12:53.201Z,98860.63
2022-08-07T01:16:01.160Z,98857.53
2022-08-07T01:18:17.138Z,98860.75
2022-08-07T01:21:22.742Z,98866.06
2022-08-07T01:23:57.888Z,98865.72
2022-08-07T01:26:26.950Z,98871.56
2022-08-07T01:28:56.401Z,98874.81
2022-08-07T01:31:42.443Z,98876.56
2022-08-07T01:34:13.336Z,98870.63
2022-08-07T01:36:44.217Z,98871.63
2022-08-07T01:39:13.773Z,98870.53
2022-08-07T01:41:55.275Z,98874.31
2022-08-07T01:44:33.548Z,98864.00
2022-08-07T01:47:14.816Z,98870.81
2022-08-07T01:49:54.623Z,98870.69
2022-08-07T01:52:27.491Z,98876.00
2022-08-07T01:54:59.003Z,98871.34
2022-08-07T01:58:06.820Z,98869.53
2022-08-07T02:00:28.704Z,98868.44
2022-08-07T02:03:19.081Z,98869.38
2022-08-07T02:06:01.244Z,98874.47
2022-08-07T02:08:32.052Z,98873.38
2022-08-07T02:11:03.716Z,98876.63
2022-08-07T02:13:56.710Z,98879.09
2022-08-07T02:16:32.948Z,98880.47
2022-08-07T02:20:05.402Z,98883.78
2022-08-07T02:21:58.823Z,98876.50
2022-08-07T02:24:30.434Z,98877.66
2022-08-07T02:27:03.924Z,98880.91
2022-08-07T02:29:36.728Z,98875.34
2022-08-07T02:32:12.827Z,98871.66
2022-08-07T02:34:48.998Z,98877.34
2022-08-07T02:37:21.877Z,98877.78
2022-08-07T02:40:02.525Z,98876.88
2022-08-07T02:42:42.386Z,98870.34
2022-08-07T02:45:57.517Z,98874.13
2022-08-07T02:48:04.088Z,98869.47
2022-08-07T02:50:44.252Z,98862.94
2022-08-07T02:53:38.661Z,98864.66
2022-08-07T02:56:21.429Z,98856.63
2022-08-07T02:58:54.144Z,98858.72
2022-08-07T03:01:36.106Z,98856.88
2022-08-07T03:04:12.566Z,98861.19
2022-08-07T03:06:48.083Z,98865.53
2022-08-07T03:09:42.164Z,98857.63
2022-08-07T03:12:22.521Z,98857.44
2022-08-07T03:15:02.199Z,98863.06
2022-08-07T03:17:53.369Z,98861.75
2022-08-07T03:20:24.399Z,98860.25
2022-08-07T03:22:56.289Z,98860.44
2022-08-07T03:25:32.515Z,98861.19
2022-08-07T03:28:38.391Z,98859.69
2022-08-07T03:31:23.696Z,98869.66
2022-08-07T03:34:03.754Z,98862.50
2022-08-07T03:36:35.084Z,98858.94
2022-08-07T03:39:09.063Z,98856.66
2022-08-07T03:41:42.232Z,98854.41
2022-08-07T03:44:17.221Z,98867.75
2022-08-07T03:47:13.708Z,98870.78
2022-08-07T03:49:52.001Z,98879.22
2022-08-07T03:52:26.455Z,98878.47
2022-08-07T03:55:06.966Z,98884.13
2022-08-07T03:58:34.611Z,98879.22
2022-08-07T04:00:29.136Z,98882.06
2022-08-07T04:03:04.326Z,98881.28
2022-08-07T04:05:39.429Z,98880.53
2022-08-07T04:08:13.192Z,98874.91
2022-08-07T04:10:54.163Z,98877.16
2022-08-07T04:14:09.220Z,98870.78
2022-08-07T04:16:31.107Z,98867.94
2022-08-07T04:19:03.873Z,98874.34
2022-08-07T04:21:34.013Z,98868.69
2022-08-07T04:24:07.816Z,98863.81
2022-08-07T04:26:36.763Z,98859.69
2022-08-07T04:29:05.657Z,98862.91
2022-08-07T04:32:09.784Z,98866.72
2022-08-07T04:34:33.210Z,98856.41
2022-08-07T04:37:07.985Z,98845.50
2022-08-07T04:39:47.952Z,98843.66
2022-08-07T04:42:18.668Z,98837.09
2022-08-07T04:44:54.717Z,98846.91
2022-08-07T04:47:58.471Z,98828.09
2022-08-07T04:50:33.993Z,98827.97
2022-08-07T04:53:40.275Z,98821.41
2022-08-07T04:58:13.161Z,98821.81
2022-08-07T05:00:09.602Z,98809.63
2022-08-07T05:02:52.644Z,98796.47
2022-08-07T05:05:57.178Z,98803.63
2022-08-07T05:08:59.650Z,98796.28
2022-08-07T05:11:58.835Z,98797.38
2022-08-07T05:14:52.823Z,98790.00
2022-08-07T05:17:51.670Z,98781.34
2022-08-07T05:20:28.002Z,98781.34
2022-08-07T05:23:05.458Z,98772.13
2022-08-07T05:26:15.622Z,98770.06
2022-08-07T05:28:40.516Z,98771.38
2022-08-07T05:31:12.791Z,98761.59
2022-08-07T05:33:51.238Z,98753.88
2022-08-07T05:36:32.471Z,98749.53
2022-08-07T05:40:05.659Z,98754.44
2022-08-07T05:42:02.533Z,98743.69
2022-08-07T05:44:36.825Z,98744.81
2022-08-07T05:47:18.384Z,98750.84
2022-08-07T05:49:52.550Z,98746.06
2022-08-07T05:52:32.545Z,98737.97
2022-08-07T05:55:07.228Z,98736.06
2022-08-07T05:57:41.982Z,98740.78
2022-08-07T06:00:16.643Z,98737.00
2022-08-07T06:02:50.085Z,98739.63
2022-08-07T06:05:19.664Z,98730.41
2022-08-07T06:08:13.204Z,98726.81
2022-08-07T06:10:43.766Z,98717.81
2022-08-07T06:13:13.583Z,98718.75
2022-08-07T06:18:30.916Z,98706.56
2022-08-07T06:22:15.936Z,98703.94
2022-08-07T06:24:45.919Z,98707.69
2022-08-07T06:26:44.478Z,98700.94
2022-08-07T06:29:13.068Z,98697.56
2022-08-07T06:31:49.904Z,98678.78
2022-08-07T06:34:20.572Z,98667.69
2022-08-07T06:36:52.194Z,98662.97
2022-08-07T06:40:16.391Z,98660.53
2022-08-07T06:42:18.589Z,98663.56
2022-08-07T06:44:52.917Z,98652.47
2022-08-07T06:47:21.752Z,98644.97
2022-08-07T06:49:51.644Z,98648.75
2022-08-07T06:52:32.000Z,98659.66
2022-08-07T06:56:00.154Z,98653.63
2022-08-07T06:58:24.525Z,98658.19
2022-08-07T07:00:56.678Z,98651.22
2022-08-07T07:03:47.498Z,98645.97
2022-08-07T07:06:26.091Z,98642.75
2022-08-07T07:08:54.977Z,98640.50
2022-08-07T07:12:08.389Z,98645.59
2022-08-07T07:14:19.512Z,98634.47
2022-08-07T07:16:54.570Z,98632.97
2022-08-07T07:19:57.156Z,98625.63
2022-08-07T07:22:35.808Z,98622.63
2022-08-07T07:26:31.206Z,98618.09
2022-08-07T07:28:42.105Z,98612.25
2022-08-07T07:31:07.202Z,98621.84
2022-08-07T07:33:39.618Z,98617.50
2022-08-07T07:36:13.293Z,98610.16
2022-08-07T07:38:46.257Z,98618.81
2022-08-07T07:41:19.426Z,98607.13
2022-08-07T07:44:14.143Z,98614.63
2022-08-07T07:46:57.152Z,98610.69
2022-08-07T07:50:35.565Z,98600.09
2022-08-07T07:52:27.928Z,98607.25
2022-08-07T07:54:58.265Z,98596.69
2022-08-07T07:57:44.029Z,98594.81
2022-08-07T08:00:29.118Z,98590.09
2022-08-07T08:03:16.420Z,98598.69
2022-08-07T08:05:55.184Z,98580.63
2022-08-07T08:08:34.281Z,98575.16
2022-08-07T08:11:16.073Z,98573.25
2022-08-07T08:13:55.343Z,98574.16
2022-08-07T08:16:40.160Z,98583.72
2022-08-07T08:19:17.907Z,98588.22
2022-08-07T08:22:21.309Z,98594.97
2022-08-07T08:25:41.160Z,98595.31
2022-08-07T08:28:24.041Z,98600.56
2022-08-07T08:31:07.833Z,98593.78
2022-08-07T08:33:49.345Z,98603.16
2022-08-07T08:36:25.415Z,98601.97
2022-08-07T08:39:02.642Z,98604.41
2022-08-07T08:41:57.919Z,98606.81
2022-08-07T08:44:52.435Z,98610.00
2022-08-07T08:47:28.229Z,98603.97
2022-08-07T08:50:28.223Z,98606.38
2022-08-07T08:53:22.793Z,98610.59
2022-08-07T08:56:09.763Z,98599.69
2022-08-07T08:58:50.662Z,98597.22
2022-08-07T09:01:44.141Z,98596.28
2022-08-07T09:04:25.994Z,98590.44
2022-08-07T09:07:04.600Z,98588.94
2022-08-07T09:09:47.511Z,98599.44
2022-08-07T09:12:53.750Z,98595.66
2022-08-07T09:16:21.760Z,98610.50
2022-08-07T09:18:58.911Z,98613.31
2022-08-07T09:22:09.747Z,98612.97
2022-08-07T09:24:59.072Z,98607.53
2022-08-07T09:28:00.671Z,98611.66
2022-08-07T09:30:46.354Z,98621.63
2022-08-07T09:33:56.803Z,98615.22
2022-08-07T09:36:53.879Z,98610.91
2022-08-07T09:39:55.488Z,98616.75
2022-08-07T09:42:33.411Z,98611.66
2022-08-07T09:47:42.711Z,98609.94
2022-08-07T09:49:02.304Z,98609.16
2022-08-07T09:52:16.758Z,98619.97
2022-08-07T09:54:55.869Z,98611.13
2022-08-07T09:57:46.873Z,98615.25
2022-08-07T10:00:29.953Z,98613.69
2022-08-07T10:04:05.124Z,98614.91
2022-08-07T10:06:49.213Z,98616.66
2022-08-07T10:10:00.292Z,98620.91
2022-08-07T10:13:00.421Z,98622.56
2022-08-07T10:15:44.358Z,98617.28
2022-08-07T10:18:36.237Z,98612.53
2022-08-07T10:22:14.559Z,98620.75
2022-08-07T10:25:12.963Z,98615.66
2022-08-07T10:27:51.392Z,98624.22
2022-08-07T10:30:34.386Z,98621.22
2022-08-07T10:34:05.888Z,98626.09
2022-08-07T10:36:55.192Z,98621.00
2022-08-07T10:39:42.000Z,98631.28
2022-08-07T10:42:49.959Z,98633.13
2022-08-07T10:45:48.030Z,98639.53
2022-08-07T10:48:52.191Z,98637.47
2022-08-07T10:51:57.193Z,98643.28
2022-08-07T10:54:30.453Z,98641.25
2022-08-07T10:57:56.143Z,98638.44
2022-08-07T11:00:39.662Z,98639.94
2022-08-07T11:03:37.309Z,98642.00
2022-08-07T11:06:27.523Z,98649.13
2022-08-07T11:09:01.801Z,98656.81
2022-08-07T11:11:51.874Z,98656.06
2022-08-07T11:15:00.301Z,98652.50
2022-08-07T11:18:12.535Z,98658.66
2022-08-07T11:21:09.165Z,98659.97
2022-08-07T11:23:50.026Z,98673.28
2022-08-07T11:26:21.557Z,98673.81
2022-08-07T11:29:40.617Z,98680.00
2022-08-07T11:32:12.124Z,98698.16
2022-08-07T11:34:58.373Z,98693.09
2022-08-07T11:37:58.372Z,98704.34
2022-08-07T11:40:50.358Z,98707.69
2022-08-07T11:43:54.428Z,98721.00
2022-08-07T11:46:48.676Z,98713.88
2022-08-07T11:50:18.855Z,98720.03
2022-08-07T11:52:29.009Z,98726.16
2022-08-07T11:55:19.002Z,98723.91
2022-08-07T11:58:16.679Z,98735.16
2022-08-07T12:01:20.359Z,98732.13
2022-08-07T12:04:12.101Z,98731.91
2022-08-07T12:07:09.114Z,98741.66
2022-08-07T12:10:24.239Z,98740.13
2022-08-07T12:13:40.998Z,98742.72
2022-08-07T12:16:28.846Z,98746.09
2022-08-07T12:19:21.740Z,98750.41
2022-08-07T12:22:39.593Z,98761.66
2022-08-07T12:26:02.777Z,98760.16
2022-08-07T12:29:11.334Z,98776.25
2022-08-07T12:32:01.493Z,98780.34
2022-08-07T12:34:35.831Z,98787.50
2022-08-07T12:37:08.684Z,98788.25
2022-08-07T12:39:50.714Z,98793.88
2022-08-07T12:42:27.562Z,98807.94
2022-08-07T12:45:04.465Z,98801.56
2022-08-07T12:47:44.118Z,98807.19
2022-08-07T12:50:38.271Z,98807.69
2022-08-07T12:53:22.066Z,98813.88
2022-08-07T12:56:09.361Z,98817.75
2022-08-07T12:58:43.983Z,98815.25
2022-08-07T13:01:57.081Z,98818.63
2022-08-07T13:05:01.133Z,98821.75
2022-08-07T13:08:14.415Z,98827.88
2022-08-07T13:10:52.085Z,98827.66
2022-08-07T13:13:46.930Z,98826.16
2022-08-07T13:16:23.391Z,98828.75
2022-08-07T13:19:21.641Z,98828.53
2022-08-07T13:22:26.837Z,98827.00
2022-08-07T13:25:24.350Z,98842.34
2022-08-07T13:28:10.806Z,98838.78
2022-08-07T13:30:53.295Z,98851.53
2022-08-07T13:34:30.796Z,98845.94
2022-08-07T13:37:30.592Z,98852.31
2022-08-07T13:40:36.155Z,98853.59
2022-08-07T13:43:15.036Z,98852.09
2022-08-07T13:46:21.799Z,98854.13
2022-08-07T13:48:40.745Z,98852.63
2022-08-07T13:51:20.471Z,98861.06
2022-08-07T13:54:05.733Z,98856.72
2022-08-07T13:56:40.783Z,98867.97
2022-08-07T13:59:21.578Z,98863.66
2022-08-07T14:02:04.030Z,98872.84
2022-08-07T14:04:49.503Z,98879.22
2022-08-07T14:07:28.966Z,98883.31
2022-08-07T14:10:21.543Z,98893.03
2022-08-07T14:13:04.059Z,98896.38
2022-08-07T14:15:39.329Z,98902.00
2022-08-07T14:18:28.415Z,98906.13
2022-08-07T14:22:03.013Z,98906.88
2022-08-07T14:24:37.792Z,98910.44
2022-08-07T14:28:09.853Z,98913.25
2022-08-07T14:30:12.434Z,98920.16
2022-08-07T14:32:46.913Z,98923.50
2022-08-07T14:35:45.413Z,98932.69
2022-08-07T14:38:30.614Z,98937.03
2022-08-07T14:41:12.394Z,98939.09
2022-08-07T14:43:58.469Z,98941.91
2022-08-07T14:46:51.827Z,98958.00
2022-08-07T14:49:58.472Z,98964.38
2022-08-07T14:52:16.858Z,98964.38
2022-08-07T14:54:54.235Z,98965.88
2022-08-07T14:57:54.428Z,98964.59
2022-08-07T15:00:20.848Z,98962.53
2022-08-07T15:03:18.850Z,98964.59
2022-08-07T15:05:54.602Z,98964.38
2022-08-07T15:08:49.865Z,98969.22
2022-08-07T15:11:52.866Z,98966.97
2022-08-07T15:14:30.457Z,98971.81
2022-08-07T15:17:02.709Z,98972.34
2022-08-07T15:20:31.835Z,98973.13
2022-08-07T15:22:33.438Z,98981.53
2022-08-07T15:28:34.128Z,98987.16
2022-08-07T15:31:05.179Z,98991.50
2022-08-07T15:33:37.189Z,98997.34
2022-08-07T15:36:08.739Z,98995.28
2022-08-07T15:38:51.773Z,99004.47
2022-08-07T15:42:44.321Z,99002.44
2022-08-07T15:44:24.118Z,99009.03
2022-08-07T15:47:03.306Z,99012.59
2022-08-07T15:50:03.770Z,99010.53
2022-08-07T15:52:31.766Z,99016.16
2022-08-07T15:55:08.800Z,99018.97
2022-08-07T15:57:48.779Z,99022.56
2022-08-07T16:00:32.063Z,99021.25
2022-08-07T16:03:46.495Z,99032.50
2022-08-07T16:06:12.064Z,99028.94
2022-08-07T16:08:47.902Z,99030.22
2022-08-07T16:11:44.478Z,99027.41
2022-08-07T16:14:19.420Z,99026.66
2022-08-07T16:16:58.404Z,99026.13
2022-08-07T16:19:59.012Z,99014.88
2022-08-07T16:22:37.778Z,99020.50
2022-08-07T16:25:52.527Z,99021.25
2022-08-07T16:30:06.515Z,99011.53
2022-08-07T16:31:57.448Z,99006.66
2022-08-07T16:34:34.487Z,99004.63
2022-08-07T16:38:04.208Z,98994.91
2022-08-07T16:40:28.821Z,98988.75
2022-08-07T16:44:06.330Z,98982.59
2022-08-07T16:47:04.868Z,98984.84
2022-08-07T16:50:28.274Z,98990.69
2022-08-07T16:53:14.774Z,98989.41
2022-08-07T16:56:07.455Z,98978.91
2022-08-07T16:59:17.797Z,98980.44
2022-08-07T17:02:11.853Z,98978.91
2022-08-07T17:06:01.547Z,98964.09
2022-08-07T17:08:02.024Z,98967.44
2022-08-07T17:10:54.527Z,98964.66
2022-08-07T17:13:41.285Z,98963.34
2022-08-07T17:16:45.890Z,98952.09
2022-08-07T17:20:03.497Z,98950.06
2022-08-07T17:22:55.275Z,98940.88
2022-08-07T17:25:47.397Z,98937.28
2022-08-07T17:28:31.413Z,98930.16
2022-08-07T17:31:16.464Z,98935.78
2022-08-07T17:34:18.081Z,98919.66
2022-08-07T17:36:57.599Z,98921.50
2022-08-07T17:39:57.883Z,98916.41
2022-08-07T17:42:59.620Z,98906.47
2022-08-07T17:45:35.695Z,98908.53
2022-08-07T17:48:15.648Z,98903.97
2022-08-07T17:51:16.416Z,98903.75
2022-08-07T17:54:11.778Z,98897.38
2022-08-07T17:56:52.601Z,98898.66
2022-08-07T17:59:35.727Z,98894.88
2022-08-07T18:02:27.544Z,98883.41
2022-08-07T18:05:24.427Z,98888.81
2022-08-07T18:08:15.472Z,98885.03
2022-08-07T18:12:06.743Z,98879.41
2022-08-07T18:14:02.411Z,98882.75
2022-08-07T18:16:35.228Z,98882.00
2022-08-07T18:21:09.698Z,98882.50
2022-08-07T18:22:29.155Z,98875.91
2022-08-07T18:25:18.835Z,98865.19
2022-08-07T18:28:10.339Z,98867.78
2022-08-07T18:31:25.738Z,98874.47
2022-08-07T18:34:40.971Z,98867.34
2022-08-07T18:38:55.561Z,98865.06
2022-08-07T18:41:08.155Z,98869.16
2022-08-07T18:43:59.488Z,98866.91
2022-08-07T18:46:42.929Z,98868.19
2022-08-07T18:50:30.965Z,98865.91
2022-08-07T18:53:06.034Z,98861.59
2022-08-07T18:56:03.564Z,98848.63
2022-08-07T18:58:53.222Z,98847.59
2022-08-07T19:02:33.198Z,98843.28
2022-08-07T19:04:57.684Z,98848.91
2022-08-07T19:07:56.993Z,98845.84
2022-08-07T19:10:31.980Z,98844.31
2022-08-07T19:13:50.194Z,98851.00
2022-08-07T19:17:00.544Z,98856.41
2022-08-07T19:19:43.430Z,98853.91
2022-08-07T19:22:44.799Z,98851.19
2022-08-07T19:26:21.938Z,98842.84
2022-08-07T19:28:58.070Z,98842.66
2022-08-07T19:32:03.453Z,98845.09
2022-08-07T19:34:34.108Z,98851.63
2022-08-07T19:37:09.967Z,98858.59
2022-08-07T19:39:57.949Z,98869.41
2022-08-07T19:42:40.207Z,98863.41
2022-08-07T19:46:06.204Z,98881.06
2022-08-07T19:48:18.672Z,98866.09
2022-08-07T19:50:54.585Z,98862.59
2022-08-07T19:54:34.120Z,98869.78
2022-08-07T19:56:58.619Z,98869.53
2022-08-07T19:59:41.241Z,98871.88
2022-08-07T20:02:20.960Z,98869.38
2022-08-07T20:04:53.112Z,98867.59
2022-08-07T20:07:47.811Z,98866.59
2022-08-07T20:10:37.041Z,98863.56
2022-08-07T20:13:22.861Z,98861.06
2022-08-07T20:15:57.525Z,98855.47
2022-08-07T20:18:33.576Z,98863.09
2022-08-07T20:21:21.334Z,98867.94
2022-08-07T20:24:08.673Z,98878.94
2022-08-07T20:26:46.204Z,98881.50
2022-08-07T20:29:48.339Z,98878.47
2022-08-07T20:32:22.305Z,98871.34
2022-08-07T20:34:57.508Z,98873.63
2022-08-07T20:37:57.659Z,98879.22
2022-08-07T20:40:34.740Z,98902.19
2022-08-07T20:43:14.544Z,98902.94
2022-08-07T20:46:27.529Z,98907.28
2022-08-07T20:49:00.722Z,98903.28
2022-08-07T20:51:35.761Z,98902.09
2022-08-07T20:54:15.133Z,98908.25
2022-08-07T20:57:02.682Z,98900.41
2022-08-07T21:00:05.126Z,98894.84
2022-08-07T21:02:55.276Z,98892.09
2022-08-07T21:05:50.699Z,98887.28
2022-08-07T21:08:36.388Z,98888.34
2022-08-07T21:11:10.795Z,98888.09
2022-08-07T21:14:16.821Z,98882.78
2022-08-07T21:16:56.828Z,98875.16
2022-08-07T21:20:00.649Z,98880.50
2022-08-07T21:25:21.388Z,98888.16
2022-08-07T21:28:10.958Z,98886.63
2022-08-07T21:30:51.276Z,98892.00
2022-08-07T21:33:24.062Z,98896.59
2022-08-07T21:36:31.114Z,98889.75
2022-08-07T21:39:47.953Z,98890.50
2022-08-07T21:42:46.580Z,98887.22
2022-08-07T21:46:05.332Z,98886.22
2022-08-07T21:48:42.632Z,98872.00
2022-08-07T21:51:51.712Z,98862.59
2022-08-07T21:54:36.567Z,98860.31
2022-08-07T21:57:39.435Z,98863.13
2022-08-07T22:00:22.387Z,98864.63
2022-08-07T22:03:17.187Z,98864.38
2022-08-07T22:06:30.172Z,98865.38
2022-08-07T22:09:11.823Z,98864.31
2022-08-07T22:12:05.239Z,98869.41
2022-08-07T22:14:59.838Z,98869.16
2022-08-07T22:17:37.915Z,98867.13
2022-08-07T22:20:24.798Z,98865.84
2022-08-07T22:23:04.576Z,98865.84
2022-08-07T22:26:18.690Z,98867.34
2022-08-07T22:29:18.693Z,98879.31
2022-08-07T22:32:06.465Z,98871.16
2022-08-07T22:34:38.275Z,98874.97
2022-08-07T22:38:03.716Z,98867.31
2022-08-07T22:40:41.259Z,98856.59
2022-08-07T22:43:17.766Z,98858.13
2022-08-07T22:47:02.060Z,98858.88
2022-08-07T22:49:37.862Z,98858.13
2022-08-07T22:52:37.676Z,98863.97
2022-08-07T22:55:30.227Z,98859.38
2022-08-07T22:58:37.627Z,98854.53
2022-08-07T23:01:41.950Z,98859.88
2022-08-07T23:04:57.791Z,98874.38
2022-08-07T23:07:54.147Z,98881.72
2022-08-07T23:10:48.197Z,98888.84
2022-08-07T23:13:29.301Z,98892.66
2022-08-07T23:16:44.853Z,98889.31
2022-08-07T23:19:51.195Z,98895.16
2022-08-07T23:22:31.838Z,98896.16
2022-08-07T23:25:44.590Z,98908.38
2022-08-07T23:28:22.443Z,98903.75
2022-08-07T23:31:13.807Z,98908.31
2022-08-07T23:34:21.552Z,98903.19
2022-08-07T23:37:32.027Z,98910.59
2022-08-07T23:40:07.444Z,98903.94
2022-08-07T23:43:16.955Z,98904.69
2022-08-07T23:46:02.975Z,98906.22
2022-08-07T23:48:44.888Z,98910.03
2022-08-07T23:52:57.920Z,98917.91
2022-08-07T23:54:46.239Z,98921.94
2022-08-07T23:57:18.398Z,98915.81
